Погода Суон-Хиллна 2 недели

Западная Австралия, Австралия

04 - 17 февраля
  • 04февраля
    Сегодня
    +10°
    +24°
    Пасмурно, сплошная облачность
    ВремяПогодаТемператураВлажностьДавлениеВетер, м/сВероятность осадков
    02:00Ясно и безоблачно+10°C68 %747 мм4.5 м/с5 %
    05:00Ясно и безоблачно+9°C80 %748 мм3.0 м/с5 %
    08:00Ясно и безоблачно+11°C75 %750 мм3.9 м/с5 %
    11:00Практически безоблачно+17°C52 %752 мм6.6 м/с5 %
    14:00Пасмурно, сплошная облачность+22°C39 %751 мм7.3 м/с4 %
    17:00Облачно с прояснениями+23°C36 %751 мм7.2 м/с5 %
    20:00Практически безоблачно+23°C37 %752 мм4.1 м/с5 %
    23:00Ясно и безоблачно+17°C55 %754 мм3.2 м/с5 %
  • 05февраля
    Воскресенье
    +12°
    +26°
    Ясно и безоблачно
    ВремяПогодаТемператураВлажностьДавлениеВетер, м/сВероятность осадков
    02:00Ясно и безоблачно+14°C64 %754 мм2.5 м/с5 %
    05:00Ясно и безоблачно+11°C74 %755 мм2.1 м/с5 %
    08:00Ясно и безоблачно+13°C72 %757 мм2.2 м/с5 %
    11:00Ясно и безоблачно+19°C48 %757 мм2.8 м/с5 %
    14:00Ясно и безоблачно+24°C39 %756 мм3.9 м/с5 %
    17:00Ясно и безоблачно+26°C35 %755 мм4.4 м/с5 %
    20:00Ясно и безоблачно+25°C41 %755 мм2.1 м/с5 %
    23:00Ясно и безоблачно+19°C58 %756 мм2.0 м/с5 %
  • 06февраля
    Понедельник
    +13°
    +29°
    Ясно и безоблачно
    ВремяПогодаТемператураВлажностьДавлениеВетер, м/сВероятность осадков
    02:00Ясно и безоблачно+16°C64 %756 мм2.9 м/с5 %
    05:00Ясно и безоблачно+14°C75 %756 мм2.6 м/с5 %
    08:00Ясно и безоблачно+15°C79 %758 мм3.0 м/с5 %
    11:00Ясно и безоблачно+22°C48 %758 мм4.0 м/с5 %
    14:00Ясно и безоблачно+27°C35 %757 мм4.1 м/с5 %
    17:00Ясно и безоблачно+29°C28 %756 мм4.7 м/с5 %
    20:00Ясно и безоблачно+27°C33 %756 мм2.9 м/с5 %
    23:00Ясно и безоблачно+21°C49 %757 мм3.7 м/с5 %
  • 07февраля
    Вторник
    +11°
    +30°
    Ясно и безоблачно
    ВремяПогодаТемператураВлажностьДавлениеВетер, м/сВероятность осадков
    02:00Ясно и безоблачно+17°C63 %756 мм4.6 м/с5 %
    05:00Ясно и безоблачно+14°C76 %756 мм3.4 м/с5 %
    08:00Ясно и безоблачно+14°C77 %758 мм3.6 м/с5 %
    11:00Ясно и безоблачно+22°C49 %758 мм4.0 м/с5 %
    14:00Ясно и безоблачно+28°C29 %756 мм4.3 м/с5 %
    17:00Ясно и безоблачно+30°C21 %754 мм5.1 м/с5 %
    20:00Ясно и безоблачно+28°C26 %754 мм2.5 м/с5 %
    23:00Ясно и безоблачно+21°C38 %755 мм4.7 м/с5 %
  • 08февраля
    Среда
    +17°
    +30°
    Ясно и безоблачно
    ВремяПогодаТемператураВлажностьДавлениеВетер, м/сВероятность осадков
    02:00Ясно и безоблачно+16°C60 %755 мм4.7 м/с5 %
    05:00Ясно и безоблачно+13°C73 %754 мм3.9 м/с3 %
    08:00Ясно и безоблачно+14°C71 %755 мм3.6 м/с4 %
    11:00Ясно и безоблачно+22°C43 %754 мм3.5 м/с7 %
    14:00Ясно и безоблачно+28°C24 %753 мм3.5 м/с5 %
    17:00Ясно и безоблачно+30°C19 %751 мм4.5 м/с4 %
    20:00Ясно и безоблачно+28°C25 %751 мм3.1 м/с3 %
    23:00Ясно и безоблачно+21°C38 %752 мм3.3 м/с7 %
Мы используем cookies
Соглашаюсь